Time;durP1;ratioP1;P1;durP2;ratioP2;P2;SDS_P1;SDS_P2;PMS_P1;PMS_P2;Temp;Humidity;BMP_temperature;BMP_pressure;BME280_temperature;BME280_humidity;BME280_pressure;Samples;Min_cycle;Max_cycle;Signal;HPM_P1;HPM_P2
2024/03/26 00:01:37;;;;;;;3.47;3.20;;;;;;;1.94;91.06;99351.69;5086047;28;20024;-66
2024/03/26 00:04:02;;;;;;;4.05;3.20;;;;;;;1.91;91.42;99352.53;5085819;28;20021;-67
2024/03/26 00:06:27;;;;;;;4.07;3.67;;;;;;;1.71;91.45;99325.03;5085535;28;20048;-66
2024/03/26 00:08:53;;;;;;;13.95;6.28;;;;;;;1.88;91.45;99343.97;5085777;28;20028;-67
2024/03/26 00:11:22;;;;;;;9.85;2.22;;;;;;;1.87;91.50;99335.41;5085784;28;20182;-66
2024/03/26 00:13:48;;;;;;;3.00;2.65;;;;;;;1.89;91.77;99340.53;5085752;28;20020;-67
2024/03/26 00:16:13;;;;;;;0.70;0.70;;;;;;;1.91;91.79;99344.84;5085651;28;20070;-66
2024/03/26 00:18:39;;;;;;;2.22;2.13;;;;;;;1.94;92.09;99341.47;5085411;28;20032;-67
2024/03/26 00:21:04;;;;;;;1.63;1.52;;;;;;;1.92;92.14;99344.00;5085277;28;20461;-66
2024/03/26 00:23:29;;;;;;;2.17;0.95;;;;;;;1.89;92.36;99343.97;5085457;28;20043;-66
2024/03/26 00:25:55;;;;;;;1.02;1.02;;;;;;;1.94;92.50;99354.25;5085368;28;20453;-66
2024/03/26 00:28:20;;;;;;;2.85;1.50;;;;;;;1.90;92.56;99340.56;5085356;28;20093;-66
2024/03/26 00:30:45;;;;;;;1.33;0.98;;;;;;;1.92;92.68;99349.13;5085434;28;20380;-66
2024/03/26 00:33:11;;;;;;;0.93;0.93;;;;;;;1.93;93.20;99350.00;5085320;28;20032;-67
2024/03/26 00:35:36;;;;;;;1.23;1.13;;;;;;;1.95;92.96;99356.84;5085244;28;20063;-66
2024/03/26 00:38:02;;;;;;;1.55;1.45;;;;;;;1.96;92.96;99360.25;5084977;28;20029;-66
2024/03/26 00:40:28;;;;;;;0.63;0.63;;;;;;;1.96;93.23;99350.88;5085178;28;20024;-66
2024/03/26 00:42:53;;;;;;;3.72;1.70;;;;;;;1.94;93.31;99350.00;5085228;28;20542;-66
2024/03/26 00:45:19;;;;;;;0.93;0.82;;;;;;;1.96;92.97;99348.31;5084926;28;20048;-66
2024/03/26 00:47:44;;;;;;;0.88;0.75;;;;;;;1.98;92.97;99354.31;5083723;28;20031;-66
2024/03/26 00:50:10;;;;;;;0.98;0.88;;;;;;;1.96;92.88;99352.56;5084870;28;20056;-67
2024/03/26 00:52:35;;;;;;;1.17;1.05;;;;;;;1.91;93.10;99344.84;5084446;28;20021;-66
2024/03/26 00:55:00;;;;;;;1.83;1.17;;;;;;;1.91;93.09;99346.53;5084991;28;20046;-67
2024/03/26 00:57:26;;;;;;;1.92;1.80;;;;;;;1.91;93.08;99344.84;5084994;28;20024;-67
2024/03/26 00:59:51;;;;;;;3.85;1.15;;;;;;;1.92;93.25;99344.00;5085035;28;20024;-66
2024/03/26 01:02:16;;;;;;;2.00;1.67;;;;;;;1.93;93.12;99339.75;5066718;28;20043;-66
2024/03/26 01:04:42;;;;;;;0.85;0.75;;;;;;;1.91;92.91;99337.19;5084624;28;20017;-66
2024/03/26 01:07:07;;;;;;;0.70;0.70;;;;;;;1.87;92.96;99332.84;5084752;28;20069;-66
2024/03/26 01:09:32;;;;;;;1.38;1.20;;;;;;;1.91;92.95;99347.41;5084804;28;20092;-66
2024/03/26 01:11:58;;;;;;;3.78;3.40;;;;;;;1.89;92.91;99346.53;5085173;28;20017;-66
2024/03/26 01:14:23;;;;;;;1.60;1.50;;;;;;;1.90;92.62;99342.28;5084360;28;20032;-66
2024/03/26 01:16:48;;;;;;;2.60;1.88;;;;;;;1.88;92.56;99342.28;5066839;28;20020;-66
2024/03/26 01:19:14;;;;;;;1.25;1.15;;;;;;;1.86;92.48;99323.47;5084639;28;20435;-65
2024/03/26 01:21:40;;;;;;;1.15;1.05;;;;;;;1.83;92.51;99324.31;5084683;28;20021;-66
2024/03/26 01:24:06;;;;;;;1.98;1.88;;;;;;;1.86;92.49;99331.16;5076297;28;20025;-67
2024/03/26 01:26:31;;;;;;;1.05;0.98;;;;;;;1.82;92.49;99326.84;5084698;28;20048;-66
2024/03/26 01:28:57;;;;;;;0.70;0.70;;;;;;;1.78;92.84;99325.09;5084544;28;20052;-65
2024/03/26 01:31:22;;;;;;;2.55;2.42;;;;;;;1.76;92.77;99327.63;5084548;28;20074;-66
2024/03/26 01:33:47;;;;;;;0.57;0.57;;;;;;;1.74;92.76;99316.53;5084568;28;20031;-66
2024/03/26 01:36:13;;;;;;;1.10;1.10;;;;;;;1.77;92.65;99326.81;5084204;28;20024;-66
2024/03/26 01:38:38;;;;;;;1.92;1.67;;;;;;;1.73;92.74;99323.34;5066346;28;20101;-67
2024/03/26 01:41:03;;;;;;;1.77;1.67;;;;;;;1.72;92.93;99321.66;5066624;28;20048;-66
2024/03/26 01:43:29;;;;;;;3.50;1.10;;;;;;;1.72;93.16;99331.88;5066407;28;20091;-67
2024/03/26 01:45:54;;;;;;;0.50;0.50;;;;;;;1.60;93.28;99308.69;5084710;28;20031;-67
2024/03/26 01:48:19;;;;;;;4.13;1.23;;;;;;;1.54;93.23;99306.06;5084453;28;20060;-67
2024/03/26 01:50:45;;;;;;;0.85;0.85;;;;;;;1.65;93.28;99324.09;5084002;28;20024;-68
2024/03/26 01:53:11;;;;;;;0.73;0.73;;;;;;;1.61;93.56;99318.13;5084481;28;20468;-67
2024/03/26 01:55:37;;;;;;;0.95;0.95;;;;;;;1.61;93.52;99318.13;5084323;28;20079;-67
2024/03/26 01:58:05;;;;;;;0.65;0.65;;;;;;;1.61;93.77;99313.00;5083874;28;20047;-67
2024/03/26 02:00:31;;;;;;;0.55;0.55;;;;;;;1.60;93.86;99313.81;5084388;28;20020;-67
2024/03/26 02:02:57;;;;;;;1.10;1.10;;;;;;;1.60;93.84;99304.44;5084168;28;20052;-68
2024/03/26 02:05:22;;;;;;;0.70;0.70;;;;;;;1.60;93.73;99313.81;5086418;28;20052;-67
2024/03/26 02:07:48;;;;;;;0.70;0.70;;;;;;;1.54;93.88;99301.84;5087870;28;20376;-65
2024/03/26 02:10:14;;;;;;;0.80;0.80;;;;;;;1.57;93.90;99304.41;5069946;28;20016;-67
2024/03/26 02:12:40;;;;;;;1.20;0.80;;;;;;;1.59;93.87;99309.56;5087887;28;20032;-67
2024/03/26 02:15:06;;;;;;;0.70;0.70;;;;;;;1.59;94.05;99304.44;5087852;28;20024;-67
2024/03/26 02:17:31;;;;;;;0.50;0.50;;;;;;;1.57;93.82;99311.22;5087488;28;20032;-68
2024/03/26 02:19:56;;;;;;;2.47;0.80;;;;;;;1.46;93.70;99304.31;5069406;28;20027;-66
2024/03/26 02:22:22;;;;;;;0.50;0.50;;;;;;;1.40;93.79;99299.13;5087681;28;20029;-67
2024/03/26 02:24:47;;;;;;;2.25;1.10;;;;;;;1.35;93.95;99304.19;5087414;28;20396;-66
2024/03/26 02:27:13;;;;;;;0.75;0.75;;;;;;;1.31;94.08;99299.88;5087693;28;20020;-67
2024/03/26 02:29:38;;;;;;;0.80;0.80;;;;;;;1.29;94.17;99295.59;5087326;28;20042;-66
2024/03/26 02:32:04;;;;;;;1.08;1.08;;;;;;;1.34;94.36;99297.34;5087505;28;20024;-66
2024/03/26 02:34:29;;;;;;;0.70;0.70;;;;;;;1.34;94.57;99292.22;5087764;28;20054;-67
2024/03/26 02:36:54;;;;;;;0.80;0.80;;;;;;;1.40;94.74;99288.03;5087281;28;20377;-66
2024/03/26 02:39:21;;;;;;;1.10;1.08;;;;;;;1.45;94.72;99286.38;5087173;28;20032;-66
2024/03/26 02:41:47;;;;;;;0.60;0.60;;;;;;;1.55;94.66;99282.22;5087385;28;20024;-67
2024/03/26 02:44:12;;;;;;;1.70;1.30;;;;;;;1.61;94.59;99285.69;5087095;28;20328;-66
2024/03/26 02:46:37;;;;;;;1.33;1.23;;;;;;;1.66;94.59;99284.91;5087061;28;20028;-65
2024/03/26 02:49:03;;;;;;;0.63;0.60;;;;;;;1.62;94.61;99273.75;5087183;28;20051;-66
2024/03/26 02:51:28;;;;;;;1.08;0.98;;;;;;;1.68;94.47;99281.50;5086966;28;20020;-66
2024/03/26 02:53:54;;;;;;;0.60;0.60;;;;;;;1.69;94.52;99285.75;5068928;28;20032;-65
2024/03/26 02:56:19;;;;;;;0.52;0.52;;;;;;;1.76;94.47;99296.09;5069152;28;20032;-66
2024/03/26 02:58:44;;;;;;;0.70;0.70;;;;;;;1.74;94.38;99298.63;5086987;28;20067;-66
2024/03/26 03:01:11;;;;;;;0.50;0.50;;;;;;;1.69;94.16;99298.56;5087021;28;20109;-65
2024/03/26 03:03:38;;;;;;;1.75;1.20;;;;;;;1.64;94.01;99299.38;5086745;28;20021;-65
2024/03/26 03:06:10;;;;;;;0.60;0.60;;;;;;;1.51;93.98;99296.69;5068429;28;20130;-64
2024/03/26 03:08:36;;;;;;;0.73;0.73;;;;;;;1.40;93.84;99294.00;5086719;28;20024;-64
2024/03/26 03:11:03;;;;;;;0.50;0.50;;;;;;;1.28;93.98;99291.31;5086971;28;20033;-63
2024/03/26 03:13:28;;;;;;;0.70;0.70;;;;;;;1.27;94.29;99297.25;5086886;28;20376;-63
2024/03/26 03:15:54;;;;;;;0.50;0.50;;;;;;;1.23;94.55;99292.09;5085684;28;20017;-63
2024/03/26 03:18:19;;;;;;;0.40;0.40;;;;;;;1.20;94.72;99292.06;5086659;28;20048;-63
2024/03/26 03:20:45;;;;;;;0.50;0.50;;;;;;;1.19;94.82;99281.84;5068389;28;20500;-63
2024/03/26 03:23:10;;;;;;;0.50;0.50;;;;;;;1.22;94.82;99286.97;5068429;28;20020;-63
2024/03/26 03:25:36;;;;;;;0.50;0.50;;;;;;;1.14;94.84;99274.09;5086618;28;20024;-63
2024/03/26 03:28:02;;;;;;;0.50;0.50;;;;;;;1.18;95.07;99280.97;5086278;28;20044;-63
2024/03/26 03:30:27;;;;;;;0.50;0.50;;;;;;;1.19;95.07;99280.16;5086464;28;20070;-63
2024/03/26 03:32:52;;;;;;;0.50;0.50;;;;;;;1.17;95.30;99268.16;5086636;28;20484;-63
2024/03/26 03:35:19;;;;;;;0.50;0.50;;;;;;;1.18;95.53;99275.84;5068312;28;20036;-63
2024/03/26 03:37:44;;;;;;;0.50;0.50;;;;;;;1.19;95.65;99271.59;5086470;28;20016;-63
2024/03/26 03:40:10;;;;;;;0.50;0.50;;;;;;;1.20;95.86;99271.63;5086195;28;20031;-62
2024/03/26 03:42:35;;;;;;;0.50;0.50;;;;;;;1.23;95.98;99276.78;5086433;28;20095;-62
2024/03/26 03:45:01;;;;;;;0.50;0.50;;;;;;;1.25;96.22;99263.16;5086072;28;20021;-63
2024/03/26 03:47:26;;;;;;;0.50;0.50;;;;;;;1.25;96.38;99264.00;5086241;28;20047;-62
2024/03/26 03:49:51;;;;;;;0.50;0.50;;;;;;;1.27;96.48;99258.91;5085736;28;20460;-62
2024/03/26 03:52:17;;;;;;;0.47;0.47;;;;;;;1.26;96.73;99252.09;5086150;28;20024;-62
2024/03/26 03:54:43;;;;;;;0.50;0.50;;;;;;;1.29;97.21;99255.53;5086085;28;20023;-63
2024/03/26 03:57:08;;;;;;;0.50;0.50;;;;;;;1.32;97.26;99249.59;5068001;28;20031;-63
2024/03/26 03:59:33;;;;;;;0.50;0.50;;;;;;;1.35;97.37;99263.28;5085817;28;20031;-64
2024/03/26 04:01:59;;;;;;;0.50;0.50;;;;;;;1.30;97.86;99254.69;5085718;28;20016;-64
2024/03/26 04:04:24;;;;;;;0.63;0.63;;;;;;;1.29;98.33;99260.66;5085643;28;20034;-63
2024/03/26 04:06:49;;;;;;;0.50;0.50;;;;;;;1.32;98.56;99255.56;5067734;28;20163;-63
2024/03/26 04:09:15;;;;;;;0.47;0.47;;;;;;;1.35;98.85;99253.03;5085928;28;20020;-63
2024/03/26 04:11:40;;;;;;;0.50;0.50;;;;;;;1.39;98.95;99250.53;5085619;28;20028;-63
2024/03/26 04:14:05;;;;;;;0.50;0.50;;;;;;;1.42;99.27;99256.50;5067670;28;20017;-62
2024/03/26 04:16:31;;;;;;;0.50;0.50;;;;;;;1.41;99.43;99251.38;5085362;28;20032;-63
2024/03/26 04:18:56;;;;;;;0.50;0.50;;;;;;;1.42;99.65;99253.09;5085548;28;20020;-64
2024/03/26 04:21:21;;;;;;;0.50;0.50;;;;;;;1.45;99.65;99250.56;5085533;28;20035;-63
2024/03/26 04:23:47;;;;;;;0.50;0.50;;;;;;;1.44;100.00;99252.28;5085287;28;20098;-63
2024/03/26 04:26:12;;;;;;;0.50;0.50;;;;;;;1.46;100.00;99252.28;5085448;28;20526;-63
2024/03/26 04:28:38;;;;;;;0.50;0.50;;;;;;;1.50;100.00;99258.31;5085193;28;20021;-63
2024/03/26 04:31:04;;;;;;;0.50;0.50;;;;;;;1.52;100.00;99256.63;5085409;28;20084;-64
2024/03/26 04:33:29;;;;;;;0.50;0.50;;;;;;;1.49;100.00;99247.19;5085683;28;20101;-64
2024/03/26 04:35:55;;;;;;;0.50;0.50;;;;;;;1.53;100.00;99251.53;5085237;28;20034;-64
2024/03/26 04:38:20;;;;;;;0.50;0.50;;;;;;;1.52;100.00;99246.38;5085018;28;20060;-63
2024/03/26 04:40:46;;;;;;;0.50;0.50;;;;;;;1.53;100.00;99248.97;5085355;28;20080;-63
2024/03/26 04:43:11;;;;;;;0.40;0.40;;;;;;;1.48;100.00;99235.25;5085099;28;20031;-64
2024/03/26 04:45:37;;;;;;;0.50;0.50;;;;;;;1.56;100.00;99249.00;5084974;28;20156;-63
2024/03/26 04:48:04;;;;;;;0.50;0.50;;;;;;;1.58;100.00;99262.63;5085185;28;20078;-63
2024/03/26 04:50:30;;;;;;;0.40;0.40;;;;;;;1.58;100.00;99257.53;5084821;28;20024;-63
2024/03/26 04:52:55;;;;;;;0.50;0.50;;;;;;;1.57;100.00;99250.69;5085040;28;20084;-64
2024/03/26 04:55:21;;;;;;;0.50;0.50;;;;;;;1.65;100.00;99258.44;5085107;28;20024;-64
2024/03/26 04:57:46;;;;;;;0.50;0.50;;;;;;;1.66;100.00;99259.31;5085056;28;20017;-64
2024/03/26 05:00:12;;;;;;;0.50;0.50;;;;;;;1.70;100.00;99250.81;5066970;28;20024;-64
2024/03/26 05:02:42;;;;;;;1.30;1.30;;;;;;;1.70;100.00;99250.81;5084987;28;20453;-65
2024/03/26 05:05:07;;;;;;;0.50;0.50;;;;;;;1.70;100.00;99261.91;5084422;28;20031;-62
2024/03/26 05:07:35;;;;;;;0.60;0.60;;;;;;;1.73;100.00;99255.94;5084978;28;20028;-66
2024/03/26 05:10:00;;;;;;;2.97;2.78;;;;;;;1.70;100.00;99250.81;5084916;28;20028;-63
2024/03/26 05:12:26;;;;;;;0.50;0.50;;;;;;;1.73;100.00;99259.38;5084757;28;20086;-63
2024/03/26 05:14:52;;;;;;;0.47;0.47;;;;;;;1.77;100.00;99272.19;5084803;28;20039;-63
2024/03/26 05:17:17;;;;;;;0.50;0.50;;;;;;;1.76;100.00;99273.06;5084794;28;20056;-63
2024/03/26 05:19:42;;;;;;;0.50;0.50;;;;;;;1.73;100.00;99272.16;5066522;28;20498;-63
2024/03/26 05:22:08;;;;;;;0.50;0.50;;;;;;;1.79;100.00;99276.47;5084887;28;20021;-63
2024/03/26 05:24:34;;;;;;;0.50;0.50;;;;;;;1.82;100.00;99273.09;5084649;28;20025;-64
2024/03/26 05:27:00;;;;;;;0.50;0.50;;;;;;;1.81;100.00;99279.91;5085042;28;20040;-64
2024/03/26 05:29:25;;;;;;;0.50;0.50;;;;;;;1.82;100.00;99270.53;5084722;28;20020;-64
2024/03/26 05:31:51;;;;;;;0.50;0.50;;;;;;;1.87;100.00;99293.63;5084917;28;20086;-68
2024/03/26 05:34:16;;;;;;;0.50;0.50;;;;;;;1.90;100.00;99286.81;5066843;28;20535;-67
2024/03/26 05:36:41;;;;;;;0.55;0.55;;;;;;;1.88;100.00;99285.97;5084426;28;20048;-63
2024/03/26 05:39:10;;;;;;;0.40;0.40;;;;;;;1.88;100.00;99279.97;5085312;28;20044;-63
2024/03/26 05:41:36;;;;;;;0.55;0.55;;;;;;;1.90;100.00;99289.38;5088484;28;20043;-63
2024/03/26 05:44:01;;;;;;;0.50;0.50;;;;;;;1.94;100.00;99290.25;5088547;28;20437;-63
2024/03/26 05:46:26;;;;;;;0.50;0.50;;;;;;;1.96;100.00;99289.44;5088495;28;20088;-64
2024/03/26 05:48:52;;;;;;;0.40;0.40;;;;;;;1.99;100.00;99293.72;5088395;28;20028;-64
2024/03/26 05:51:17;;;;;;;0.45;0.45;;;;;;;2.02;100.00;99293.75;5069919;28;20361;-63
2024/03/26 05:53:42;;;;;;;0.50;0.50;;;;;;;2.06;100.00;99294.66;5088270;28;20070;-65
2024/03/26 05:56:08;;;;;;;0.40;0.40;;;;;;;2.11;100.00;99292.97;5088380;28;20024;-64
2024/03/26 05:58:33;;;;;;;0.50;0.50;;;;;;;2.14;100.00;99300.66;5088198;28;20028;-64
2024/03/26 06:01:03;;;;;;;0.50;0.50;;;;;;;2.14;100.00;99292.97;5088252;28;20055;-64
2024/03/26 06:03:28;;;;;;;0.50;0.50;;;;;;;2.17;100.00;99295.56;5086652;28;20020;-64
2024/03/26 06:05:53;;;;;;;0.40;0.40;;;;;;;2.18;100.00;99294.75;5087664;28;20052;-64
2024/03/26 06:08:19;;;;;;;0.50;0.50;;;;;;;2.20;100.00;99300.75;5088020;28;20068;-64
2024/03/26 06:10:44;;;;;;;0.50;0.50;;;;;;;2.20;100.00;99300.75;5088340;28;20078;-64
2024/03/26 06:13:09;;;;;;;0.50;0.50;;;;;;;2.21;100.00;99299.88;5087950;28;20369;-63
2024/03/26 06:15:35;;;;;;;1.15;1.15;;;;;;;2.22;100.00;99295.63;5087921;28;20032;-62
2024/03/26 06:18:00;;;;;;;0.60;0.60;;;;;;;2.27;100.00;99298.22;5087756;28;20482;-63
2024/03/26 06:20:25;;;;;;;0.50;0.50;;;;;;;2.26;100.00;99296.50;5087632;28;20028;-63
2024/03/26 06:22:51;;;;;;;0.47;0.47;;;;;;;2.32;100.00;99299.09;5088018;28;20065;-63
2024/03/26 06:25:16;;;;;;;0.40;0.40;;;;;;;2.35;100.00;99296.56;5087824;28;20021;-63
2024/03/26 06:27:41;;;;;;;0.50;0.50;;;;;;;2.36;100.00;99298.28;5087765;28;20024;-63
2024/03/26 06:30:08;;;;;;;0.40;0.40;;;;;;;2.44;100.00;99306.91;5087811;28;20021;-63
2024/03/26 06:32:33;;;;;;;0.50;0.50;;;;;;;2.48;100.00;99300.94;5087667;28;20084;-63
2024/03/26 06:34:59;;;;;;;0.40;0.40;;;;;;;2.56;100.00;99297.53;5087503;28;20016;-63
2024/03/26 06:37:24;;;;;;;0.50;0.50;;;;;;;2.62;100.00;99307.00;5087358;28;20036;-64
2024/03/26 06:39:50;;;;;;;0.40;0.40;;;;;;;2.68;100.00;99299.34;5087315;28;20033;-64
2024/03/26 06:42:15;;;;;;;0.50;0.50;;;;;;;2.66;100.00;99296.78;5087683;28;20023;-63
2024/03/26 06:44:40;;;;;;;0.50;0.50;;;;;;;2.70;100.00;99301.06;5087474;28;20021;-63
2024/03/26 06:47:06;;;;;;;0.50;0.50;;;;;;;2.77;100.00;99311.34;5087339;28;20024;-63
2024/03/26 06:49:31;;;;;;;1.58;1.48;;;;;;;2.79;100.00;99305.41;5087264;28;20028;-63
2024/03/26 06:51:57;;;;;;;0.50;0.50;;;;;;;2.83;100.00;99304.56;5087266;28;20024;-63
2024/03/26 06:54:22;;;;;;;0.47;0.47;;;;;;;2.90;100.00;99314.84;5087371;28;20025;-63
2024/03/26 06:56:48;;;;;;;0.50;0.50;;;;;;;2.97;100.00;99312.31;5087493;28;20576;-64
2024/03/26 06:59:14;;;;;;;0.40;0.40;;;;;;;3.06;100.00;99319.22;5087082;28;20044;-63
2024/03/26 07:01:39;;;;;;;0.50;0.50;;;;;;;3.10;100.00;99307.22;5087086;28;20021;-64
2024/03/26 07:04:04;;;;;;;1.95;1.85;;;;;;;3.25;100.00;99311.59;5069018;28;20020;-64
2024/03/26 07:06:30;;;;;;;0.40;0.40;;;;;;;3.50;100.00;99310.81;5086567;28;20051;-63
2024/03/26 07:08:56;;;;;;;0.40;0.40;;;;;;;3.60;100.00;99317.66;5087087;28;20020;-63
2024/03/26 07:11:21;;;;;;;2.00;1.90;;;;;;;3.68;100.00;99316.00;5087022;28;20028;-63
2024/03/26 07:13:48;;;;;;;0.50;0.50;;;;;;;3.80;100.00;99316.88;5087213;28;20028;-63
2024/03/26 07:16:13;;;;;;;0.50;0.50;;;;;;;3.84;100.00;99321.16;5086997;28;20027;-63
2024/03/26 07:18:39;;;;;;;0.40;0.40;;;;;;;3.93;100.00;99315.19;5068552;28;20044;-64
2024/03/26 07:21:05;;;;;;;0.40;0.40;;;;;;;4.03;100.00;99331.44;5086541;28;20404;-64
2024/03/26 07:23:30;;;;;;;0.50;0.50;;;;;;;4.12;100.00;99320.31;5086871;28;20028;-63
2024/03/26 07:25:56;;;;;;;1.23;1.23;;;;;;;4.21;100.00;99317.75;5068619;28;20067;-64
2024/03/26 07:28:21;;;;;;;0.40;0.40;;;;;;;4.22;100.00;99320.31;5086493;28;20091;-63
2024/03/26 07:30:46;;;;;;;0.40;0.40;;;;;;;4.32;100.00;99315.19;5086511;28;20069;-64
2024/03/26 07:33:12;;;;;;;0.40;0.40;;;;;;;4.32;100.00;99310.91;5086471;28;20020;-64
2024/03/26 07:35:37;;;;;;;0.40;0.40;;;;;;;4.32;100.00;99308.34;5086345;28;20032;-63
2024/03/26 07:38:03;;;;;;;0.43;0.43;;;;;;;4.34;100.00;99298.06;5086493;28;20490;-63
2024/03/26 07:40:28;;;;;;;0.50;0.50;;;;;;;4.45;100.00;99300.63;5086335;28;20027;-64
2024/03/26 07:42:55;;;;;;;0.40;0.40;;;;;;;4.56;100.00;99300.59;5086237;28;20389;-64
2024/03/26 07:45:20;;;;;;;0.45;0.45;;;;;;;4.66;100.00;99304.88;5086239;28;20092;-65
2024/03/26 07:47:45;;;;;;;0.40;0.40;;;;;;;4.71;100.00;99292.84;5086191;28;20070;-65
2024/03/26 07:50:11;;;;;;;0.40;0.40;;;;;;;4.67;100.00;99293.72;5085858;28;20020;-64
2024/03/26 07:52:36;;;;;;;0.40;0.40;;;;;;;4.71;100.00;99289.44;5086207;28;20020;-64
2024/03/26 07:55:01;;;;;;;0.40;0.40;;;;;;;4.83;100.00;99304.81;5085933;28;20024;-65
2024/03/26 07:57:27;;;;;;;0.40;0.40;;;;;;;4.92;100.00;99301.38;5086139;28;20468;-66
2024/03/26 07:59:52;;;;;;;0.40;0.40;;;;;;;5.07;100.00;99302.19;5085937;28;20025;-66
2024/03/26 08:02:18;;;;;;;0.40;0.40;;;;;;;5.24;100.00;99304.66;5085474;28;20031;-66
2024/03/26 08:04:43;;;;;;;0.50;0.50;;;;;;;5.38;100.00;99301.19;5085811;28;20043;-65
2024/03/26 08:07:09;;;;;;;0.40;0.40;;;;;;;5.58;100.00;99291.66;5085669;28;20044;-66
2024/03/26 08:09:34;;;;;;;0.43;0.43;;;;;;;5.66;100.00;99299.31;5085752;28;20016;-66
2024/03/26 08:11:59;;;;;;;0.40;0.40;;;;;;;5.53;100.00;99292.50;5085973;28;20042;-65
2024/03/26 08:14:25;;;;;;;0.50;0.50;;;;;;;5.41;100.00;99285.72;5067561;28;20017;-65
2024/03/26 08:16:51;;;;;;;0.40;0.40;;;;;;;5.48;100.00;99286.56;5067586;28;20046;-65
2024/03/26 08:19:17;;;;;;;0.40;0.40;;;;;;;5.66;100.00;99293.31;5085732;28;20052;-65
2024/03/26 08:21:42;;;;;;;0.40;0.40;;;;;;;5.83;100.00;99293.22;5085462;28;20423;-65
2024/03/26 08:24:07;;;;;;;0.40;0.40;;;;;;;5.90;100.00;99284.56;5085663;28;20025;-65
2024/03/26 08:26:33;;;;;;;0.40;0.40;;;;;;;5.92;100.00;99285.41;5085471;28;20088;-65
2024/03/26 08:28:59;;;;;;;0.40;0.40;;;;;;;5.95;100.00;99282.81;5085577;28;20100;-63
2024/03/26 08:31:25;;;;;;;0.40;0.40;;;;;;;5.91;100.00;99296.56;5085492;28;20508;-64
2024/03/26 08:33:51;;;;;;;0.40;0.40;;;;;;;6.03;100.00;99287.03;5085713;28;20016;-64
2024/03/26 08:36:16;;;;;;;0.40;0.40;;;;;;;6.11;100.00;99285.31;5085451;28;20025;-63
2024/03/26 08:38:41;;;;;;;0.40;0.40;;;;;;;6.25;100.00;99289.47;5085411;28;20024;-64
2024/03/26 08:41:07;;;;;;;0.40;0.40;;;;;;;6.42;100.00;99282.44;5085864;28;20070;-64
2024/03/26 08:43:33;;;;;;;0.40;0.40;;;;;;;6.42;100.00;99277.28;5085682;28;20032;-63
2024/03/26 08:45:58;;;;;;;0.40;0.40;;;;;;;6.55;100.00;99282.34;5085403;28;20111;-64
2024/03/26 08:48:23;;;;;;;0.40;0.40;;;;;;;6.78;100.00;99270.91;5085304;28;20021;-65
2024/03/26 08:50:49;;;;;;;0.35;0.35;;;;;;;6.84;100.00;99283.72;5084984;28;20419;-65
2024/03/26 08:53:14;;;;;;;0.40;0.40;;;;;;;6.93;100.00;99282.78;5085261;28;20063;-64
2024/03/26 08:55:39;;;;;;;0.40;0.40;;;;;;;7.01;100.00;99280.13;5085292;28;20389;-64
2024/03/26 08:58:05;;;;;;;0.40;0.40;;;;;;;6.89;99.48;99260.47;5085334;28;20044;-65
2024/03/26 09:00:30;;;;;;;0.50;0.50;;;;;;;7.09;99.63;99282.59;5085067;28;20138;-66
2024/03/26 09:02:57;;;;;;;0.40;0.40;;;;;;;7.09;97.82;99278.31;5085144;28;20067;-66
2024/03/26 09:05:22;;;;;;;0.40;0.40;;;;;;;7.14;98.37;99281.66;5066504;28;20388;-66
2024/03/26 09:07:48;;;;;;;0.40;0.40;;;;;;;7.26;99.54;99280.66;5067127;28;20039;-66
2024/03/26 09:10:13;;;;;;;0.40;0.40;;;;;;;7.36;97.32;99283.13;5066848;28;20035;-66
2024/03/26 09:12:39;;;;;;;0.40;0.40;;;;;;;7.68;97.72;99280.06;5085033;28;20055;-67
2024/03/26 09:15:05;;;;;;;0.40;0.40;;;;;;;7.87;98.18;99271.22;5087232;28;20133;-67
2024/03/26 09:17:30;;;;;;;0.40;0.40;;;;;;;7.65;96.57;99274.13;5088131;28;20027;-66
2024/03/26 09:19:55;;;;;;;0.40;0.40;;;;;;;7.40;96.84;99275.31;5089019;28;20021;-66
2024/03/26 09:22:21;;;;;;;0.30;0.30;;;;;;;7.40;96.21;99280.47;5089012;28;20088;-66
2024/03/26 09:24:47;;;;;;;0.40;0.40;;;;;;;7.30;96.25;99273.75;5070902;28;20062;-66
2024/03/26 09:27:13;;;;;;;0.40;0.40;;;;;;;7.36;96.62;99276.25;5070842;28;20051;-66
2024/03/26 09:29:38;;;;;;;0.70;0.70;;;;;;;7.26;96.81;99275.50;5088801;28;20040;-67
2024/03/26 09:32:04;;;;;;;0.60;0.57;;;;;;;7.31;96.48;99268.56;5087400;28;20029;-67
2024/03/26 09:34:30;;;;;;;0.40;0.40;;;;;;;7.35;95.93;99271.94;5087643;28;20063;-66
2024/03/26 09:36:56;;;;;;;0.40;0.40;;;;;;;7.39;92.67;99276.19;5087473;28;20103;-66
2024/03/26 09:39:22;;;;;;;0.40;0.40;;;;;;;7.50;89.18;99272.59;5088789;28;20135;-65
2024/03/26 09:41:48;;;;;;;0.40;0.40;;;;;;;7.59;88.59;99271.63;5088775;28;20091;-66
2024/03/26 09:44:14;;;;;;;0.45;0.45;;;;;;;7.67;84.93;99275.78;5088541;28;20032;-67
2024/03/26 09:46:40;;;;;;;0.30;0.30;;;;;;;7.69;85.62;99274.06;5088452;28;20077;-66
2024/03/26 09:49:06;;;;;;;0.40;0.40;;;;;;;7.71;87.03;99275.75;5070450;28;20446;-66
2024/03/26 09:51:37;;;;;;;0.40;0.40;;;;;;;7.73;88.71;99271.41;5088489;28;20016;-66
2024/03/26 09:54:03;;;;;;;0.40;0.40;;;;;;;7.50;82.91;99262.28;5088444;28;20025;-66
2024/03/26 09:56:28;;;;;;;0.40;0.40;;;;;;;7.39;82.42;99262.44;5088455;28;20044;-66
2024/03/26 09:58:54;;;;;;;0.40;0.40;;;;;;;7.42;83.07;99268.41;5088293;28;20020;-66
2024/03/26 10:01:25;;;;;;;0.40;0.40;;;;;;;7.39;85.50;99265.88;5088407;28;20054;-66
2024/03/26 10:03:53;;;;;;;0.40;0.40;;;;;;;7.21;85.45;99271.25;5088214;28;20028;-66
2024/03/26 10:06:22;;;;;;;0.40;0.40;;;;;;;7.04;83.89;99262.00;5088135;28;20044;-67
2024/03/26 10:08:48;;;;;;;0.40;0.40;;;;;;;6.78;85.17;99265.75;5088016;28;20031;-66
2024/03/26 10:11:13;;;;;;;0.40;0.40;;;;;;;6.67;86.28;99259.00;5088211;28;20044;-66
2024/03/26 10:13:39;;;;;;;0.40;0.40;;;;;;;6.71;86.98;99261.53;5088089;28;20012;-66
2024/03/26 10:16:04;;;;;;;0.40;0.40;;;;;;;6.78;88.62;99253.72;5088199;28;20081;-66
2024/03/26 10:18:30;;;;;;;0.40;0.40;;;;;;;6.85;89.34;99266.53;5088003;28;20025;-66
2024/03/26 10:20:55;;;;;;;0.40;0.40;;;;;;;6.90;90.08;99264.78;5087829;28;20027;-67
2024/03/26 10:23:20;;;;;;;0.70;0.70;;;;;;;6.77;87.97;99257.16;5087757;28;20032;-66
2024/03/26 10:25:46;;;;;;;0.40;0.40;;;;;;;6.51;87.48;99253.16;5087376;28;20028;-66
2024/03/26 10:28:11;;;;;;;0.40;0.40;;;;;;;6.48;89.35;99254.91;5087899;28;20029;-66
2024/03/26 10:30:37;;;;;;;0.40;0.40;;;;;;;6.38;88.46;99247.25;5087875;28;20093;-66
2024/03/26 10:33:05;;;;;;;0.40;0.40;;;;;;;6.17;88.02;99240.56;5087714;28;20044;-67
2024/03/26 10:35:32;;;;;;;0.40;0.40;;;;;;;5.98;87.45;99251.00;5087638;28;20020;-67
2024/03/26 10:38:02;;;;;;;0.40;0.40;;;;;;;5.92;88.91;99251.06;5087749;28;20530;-66
2024/03/26 10:40:31;;;;;;;0.60;0.60;;;;;;;5.91;89.68;99250.19;5087539;28;20020;-66
2024/03/26 10:43:01;;;;;;;0.85;0.85;;;;;;;5.85;90.63;99232.22;5069438;28;20031;-66
2024/03/26 10:45:27;;;;;;;0.40;0.40;;;;;;;6.10;91.18;99249.25;5087548;28;20107;-66
2024/03/26 10:47:56;;;;;;;0.75;0.75;;;;;;;6.12;90.67;99243.19;5087456;28;20020;-66
2024/03/26 10:50:24;;;;;;;1.85;1.75;;;;;;;6.17;90.77;99248.31;5087111;28;20433;-67
2024/03/26 10:52:51;;;;;;;0.40;0.40;;;;;;;6.20;91.85;99241.41;5087554;28;20071;-67
2024/03/26 10:55:16;;;;;;;0.50;0.50;;;;;;;6.15;90.16;99252.63;5069266;28;20020;-66
2024/03/26 10:57:42;;;;;;;0.40;0.40;;;;;;;6.05;89.87;99242.38;5087234;28;20029;-66
2024/03/26 11:00:10;;;;;;;0.40;0.40;;;;;;;6.15;90.87;99248.31;5069231;28;20024;-66
2024/03/26 11:02:48;;;;;;;8.75;1.83;;;;;;;6.20;91.23;99233.66;5087169;28;20032;-66
2024/03/26 11:05:14;;;;;;;0.40;0.40;;;;;;;6.28;91.01;99231.03;5086837;28;20044;-66
2024/03/26 11:07:42;;;;;;;0.40;0.40;;;;;;;6.42;89.69;99241.19;5087285;28;20052;-66
2024/03/26 11:10:10;;;;;;;0.40;0.40;;;;;;;6.45;88.35;99246.31;5087085;28;20028;-66
2024/03/26 11:12:39;;;;;;;0.50;0.50;;;;;;;6.53;88.50;99240.25;5087057;28;20025;-67
2024/03/26 11:15:16;;;;;;;0.40;0.40;;;;;;;6.63;86.69;99241.84;5087187;28;20076;-66
2024/03/26 11:18:03;;;;;;;0.43;0.43;;;;;;;6.81;86.56;99233.03;5086890;28;20104;-66
2024/03/26 11:20:29;;;;;;;0.40;0.40;;;;;;;7.03;88.98;99237.06;5086552;28;20050;-67
2024/03/26 11:23:01;;;;;;;0.40;0.40;;;;;;;6.84;85.72;99232.13;5085692;28;20024;-67
2024/03/26 11:25:28;;;;;;;1.73;1.70;;;;;;;6.66;86.22;99215.16;5086702;28;20088;-66
2024/03/26 11:27:54;;;;;;;0.40;0.40;;;;;;;6.63;85.34;99223.78;5086725;28;20028;-66
2024/03/26 11:30:21;;;;;;;0.40;0.40;;;;;;;6.62;84.92;99224.66;5085271;28;20092;-66
2024/03/26 11:32:49;;;;;;;0.40;0.40;;;;;;;6.65;85.86;99219.47;5086505;28;20052;-66